sensor_id;sensor_type;location;lat;lon;timestamp;P1;P2;P0
56688;PMS5003;42565;53.342;-1.534;2022-12-24T00:00:38;7;6;
56688;PMS5003;42565;53.342;-1.534;2022-12-24T00:03:09;11;8;
56688;PMS5003;42565;53.342;-1.534;2022-12-24T00:05:36;6;5;
56688;PMS5003;42565;53.342;-1.534;2022-12-24T00:08:06;5;4;
56688;PMS5003;42565;53.342;-1.534;2022-12-24T00:10:33;11;7;
56688;PMS5003;42565;53.342;-1.534;2022-12-24T00:13:01;6;5;
56688;PMS5003;42565;53.342;-1.534;2022-12-24T00:15:28;7;7;
56688;PMS5003;42565;53.342;-1.534;2022-12-24T00:17:55;9;6;
56688;PMS5003;42565;53.342;-1.534;2022-12-24T00:20:22;6;5;
56688;PMS5003;42565;53.342;-1.534;2022-12-24T00:22:48;7;6;
56688;PMS5003;42565;53.342;-1.534;2022-12-24T00:25:16;6;5;
56688;PMS5003;42565;53.342;-1.534;2022-12-24T00:27:44;12;7;
56688;PMS5003;42565;53.342;-1.534;2022-12-24T00:30:11;6;5;
56688;PMS5003;42565;53.342;-1.534;2022-12-24T00:32:38;6;5;
56688;PMS5003;42565;53.342;-1.534;2022-12-24T00:35:06;4;4;
56688;PMS5003;42565;53.342;-1.534;2022-12-24T00:37:34;10;7;
56688;PMS5003;42565;53.342;-1.534;2022-12-24T00:40:01;8;6;
56688;PMS5003;42565;53.342;-1.534;2022-12-24T00:42:28;5;3;
56688;PMS5003;42565;53.342;-1.534;2022-12-24T00:44:55;6;5;
56688;PMS5003;42565;53.342;-1.534;2022-12-24T00:47:23;7;5;
56688;PMS5003;42565;53.342;-1.534;2022-12-24T00:49:49;6;6;
56688;PMS5003;42565;53.342;-1.534;2022-12-24T00:52:17;6;6;
56688;PMS5003;42565;53.342;-1.534;2022-12-24T00:54:45;10;5;
56688;PMS5003;42565;53.342;-1.534;2022-12-24T00:57:12;4;3;
56688;PMS5003;42565;53.342;-1.534;2022-12-24T00:59:39;6;6;
56688;PMS5003;42565;53.342;-1.534;2022-12-24T01:02:07;7;4;
56688;PMS5003;42565;53.342;-1.534;2022-12-24T01:04:34;5;3;
56688;PMS5003;42565;53.342;-1.534;2022-12-24T01:07:01;6;3;
56688;PMS5003;42565;53.342;-1.534;2022-12-24T01:09:29;5;4;
56688;PMS5003;42565;53.342;-1.534;2022-12-24T01:11:56;5;3;
56688;PMS5003;42565;53.342;-1.534;2022-12-24T01:14:24;8;4;
56688;PMS5003;42565;53.342;-1.534;2022-12-24T01:16:50;5;3;
56688;PMS5003;42565;53.342;-1.534;2022-12-24T01:19:17;4;3;
56688;PMS5003;42565;53.342;-1.534;2022-12-24T01:21:45;3;3;
56688;PMS5003;42565;53.342;-1.534;2022-12-24T01:24:13;4;2;
56688;PMS5003;42565;53.342;-1.534;2022-12-24T01:26:41;4;3;
56688;PMS5003;42565;53.342;-1.534;2022-12-24T01:29:08;3;2;
56688;PMS5003;42565;53.342;-1.534;2022-12-24T01:31:36;2;2;
56688;PMS5003;42565;53.342;-1.534;2022-12-24T01:34:03;3;2;
56688;PMS5003;42565;53.342;-1.534;2022-12-24T01:36:31;3;1;
56688;PMS5003;42565;53.342;-1.534;2022-12-24T01:38:58;3;2;
56688;PMS5003;42565;53.342;-1.534;2022-12-24T01:41:26;3;2;
56688;PMS5003;42565;53.342;-1.534;2022-12-24T01:43:55;3;3;
56688;PMS5003;42565;53.342;-1.534;2022-12-24T01:46:22;2;2;
56688;PMS5003;42565;53.342;-1.534;2022-12-24T01:48:54;2;1;
56688;PMS5003;42565;53.342;-1.534;2022-12-24T01:51:26;3;2;
56688;PMS5003;42565;53.342;-1.534;2022-12-24T01:54:00;2;2;
56688;PMS5003;42565;53.342;-1.534;2022-12-24T01:56:30;1;1;
56688;PMS5003;42565;53.342;-1.534;2022-12-24T01:59:02;2;2;
56688;PMS5003;42565;53.342;-1.534;2022-12-24T02:01:32;2;2;
56688;PMS5003;42565;53.342;-1.534;2022-12-24T02:04:00;5;3;
56688;PMS5003;42565;53.342;-1.534;2022-12-24T02:06:32;5;3;
56688;PMS5003;42565;53.342;-1.534;2022-12-24T02:08:59;2;2;
56688;PMS5003;42565;53.342;-1.534;2022-12-24T02:11:26;4;3;
56688;PMS5003;42565;53.342;-1.534;2022-12-24T02:13:55;2;2;
56688;PMS5003;42565;53.342;-1.534;2022-12-24T02:16:28;3;2;
56688;PMS5003;42565;53.342;-1.534;2022-12-24T02:19:04;3;3;
56688;PMS5003;42565;53.342;-1.534;2022-12-24T02:21:49;3;2;
56688;PMS5003;42565;53.342;-1.534;2022-12-24T02:24:28;6;5;
56688;PMS5003;42565;53.342;-1.534;2022-12-24T02:27:15;9;8;
56688;PMS5003;42565;53.342;-1.534;2022-12-24T02:29:52;6;4;
56688;PMS5003;42565;53.342;-1.534;2022-12-24T02:32:29;8;5;
56688;PMS5003;42565;53.342;-1.534;2022-12-24T02:35:08;6;5;
56688;PMS5003;42565;53.342;-1.534;2022-12-24T02:37:40;7;5;
56688;PMS5003;42565;53.342;-1.534;2022-12-24T02:40:13;10;7;
56688;PMS5003;42565;53.342;-1.534;2022-12-24T02:42:47;9;6;
56688;PMS5003;42565;53.342;-1.534;2022-12-24T02:45:19;8;6;
56688;PMS5003;42565;53.342;-1.534;2022-12-24T02:47:51;6;5;
56688;PMS5003;42565;53.342;-1.534;2022-12-24T02:50:20;6;5;
56688;PMS5003;42565;53.342;-1.534;2022-12-24T02:52:47;5;5;
56688;PMS5003;42565;53.342;-1.534;2022-12-24T02:55:16;6;6;
56688;PMS5003;42565;53.342;-1.534;2022-12-24T02:59:17;5;4;
56688;PMS5003;42565;53.342;-1.534;2022-12-24T03:01:56;7;5;
56688;PMS5003;42565;53.342;-1.534;2022-12-24T03:04:39;4;4;
56688;PMS5003;42565;53.342;-1.534;2022-12-24T03:07:15;6;5;
56688;PMS5003;42565;53.342;-1.534;2022-12-24T03:09:50;6;6;
56688;PMS5003;42565;53.342;-1.534;2022-12-24T03:12:26;9;4;
56688;PMS5003;42565;53.342;-1.534;2022-12-24T03:14:58;7;4;
56688;PMS5003;42565;53.342;-1.534;2022-12-24T03:17:27;3;3;
56688;PMS5003;42565;53.342;-1.534;2022-12-24T03:19:55;5;4;
56688;PMS5003;42565;53.342;-1.534;2022-12-24T03:22:23;3;3;
56688;PMS5003;42565;53.342;-1.534;2022-12-24T03:24:52;5;3;
56688;PMS5003;42565;53.342;-1.534;2022-12-24T03:27:21;5;4;
56688;PMS5003;42565;53.342;-1.534;2022-12-24T03:29:50;3;3;
56688;PMS5003;42565;53.342;-1.534;2022-12-24T03:32:22;4;3;
56688;PMS5003;42565;53.342;-1.534;2022-12-24T03:34:50;3;3;
56688;PMS5003;42565;53.342;-1.534;2022-12-24T03:37:18;1;0;
56688;PMS5003;42565;53.342;-1.534;2022-12-24T03:39:45;3;2;
56688;PMS5003;42565;53.342;-1.534;2022-12-24T03:42:12;2;2;
56688;PMS5003;42565;53.342;-1.534;2022-12-24T03:44:39;1;1;
56688;PMS5003;42565;53.342;-1.534;2022-12-24T03:47:06;1;0;
56688;PMS5003;42565;53.342;-1.534;2022-12-24T03:49:34;2;1;
56688;PMS5003;42565;53.342;-1.534;2022-12-24T03:52:01;4;3;
56688;PMS5003;42565;53.342;-1.534;2022-12-24T03:54:28;1;1;
56688;PMS5003;42565;53.342;-1.534;2022-12-24T03:56:56;2;1;
56688;PMS5003;42565;53.342;-1.534;2022-12-24T03:59:23;4;2;
56688;PMS5003;42565;53.342;-1.534;2022-12-24T04:01:50;1;1;
56688;PMS5003;42565;53.342;-1.534;2022-12-24T04:04:17;3;2;
56688;PMS5003;42565;53.342;-1.534;2022-12-24T04:06:44;2;1;
56688;PMS5003;42565;53.342;-1.534;2022-12-24T04:09:12;1;1;
56688;PMS5003;42565;53.342;-1.534;2022-12-24T04:11:39;0;0;
56688;PMS5003;42565;53.342;-1.534;2022-12-24T04:14:05;1;1;
56688;PMS5003;42565;53.342;-1.534;2022-12-24T04:16:32;0;0;
56688;PMS5003;42565;53.342;-1.534;2022-12-24T04:19:00;3;1;
56688;PMS5003;42565;53.342;-1.534;2022-12-24T04:21:27;3;0;
56688;PMS5003;42565;53.342;-1.534;2022-12-24T04:23:55;0;0;
56688;PMS5003;42565;53.342;-1.534;2022-12-24T04:26:23;2;1;
56688;PMS5003;42565;53.342;-1.534;2022-12-24T04:28:50;2;1;
56688;PMS5003;42565;53.342;-1.534;2022-12-24T04:31:18;4;1;
56688;PMS5003;42565;53.342;-1.534;2022-12-24T04:33:45;3;2;
56688;PMS5003;42565;53.342;-1.534;2022-12-24T04:36:14;2;2;
56688;PMS5003;42565;53.342;-1.534;2022-12-24T04:38:43;4;3;
56688;PMS5003;42565;53.342;-1.534;2022-12-24T04:41:12;1;1;
56688;PMS5003;42565;53.342;-1.534;2022-12-24T04:43:40;1;1;
56688;PMS5003;42565;53.342;-1.534;2022-12-24T04:46:09;2;2;
56688;PMS5003;42565;53.342;-1.534;2022-12-24T04:48:37;0;0;
56688;PMS5003;42565;53.342;-1.534;2022-12-24T04:51:04;3;1;
56688;PMS5003;42565;53.342;-1.534;2022-12-24T04:53:33;1;0;
56688;PMS5003;42565;53.342;-1.534;2022-12-24T04:56:02;1;1;
56688;PMS5003;42565;53.342;-1.534;2022-12-24T04:58:30;0;0;
56688;PMS5003;42565;53.342;-1.534;2022-12-24T05:01:01;1;1;
56688;PMS5003;42565;53.342;-1.534;2022-12-24T05:03:29;2;0;
56688;PMS5003;42565;53.342;-1.534;2022-12-24T05:06:00;3;1;
56688;PMS5003;42565;53.342;-1.534;2022-12-24T05:08:27;1;1;
56688;PMS5003;42565;53.342;-1.534;2022-12-24T05:10:54;1;1;
56688;PMS5003;42565;53.342;-1.534;2022-12-24T05:13:22;2;1;
56688;PMS5003;42565;53.342;-1.534;2022-12-24T05:15:50;1;0;
56688;PMS5003;42565;53.342;-1.534;2022-12-24T05:18:18;1;1;
56688;PMS5003;42565;53.342;-1.534;2022-12-24T05:20:45;2;1;
56688;PMS5003;42565;53.342;-1.534;2022-12-24T05:23:14;1;1;
56688;PMS5003;42565;53.342;-1.534;2022-12-24T05:25:42;1;1;
56688;PMS5003;42565;53.342;-1.534;2022-12-24T05:28:09;1;1;
56688;PMS5003;42565;53.342;-1.534;2022-12-24T05:30:37;2;2;
56688;PMS5003;42565;53.342;-1.534;2022-12-24T05:33:04;2;1;
56688;PMS5003;42565;53.342;-1.534;2022-12-24T05:35:30;3;1;
56688;PMS5003;42565;53.342;-1.534;2022-12-24T05:37:57;2;1;
56688;PMS5003;42565;53.342;-1.534;2022-12-24T05:40:25;1;1;
56688;PMS5003;42565;53.342;-1.534;2022-12-24T05:42:52;1;1;
56688;PMS5003;42565;53.342;-1.534;2022-12-24T05:45:19;1;1;
56688;PMS5003;42565;53.342;-1.534;2022-12-24T05:47:46;2;2;
56688;PMS5003;42565;53.342;-1.534;2022-12-24T05:50:13;2;1;
56688;PMS5003;42565;53.342;-1.534;2022-12-24T05:52:41;2;1;
56688;PMS5003;42565;53.342;-1.534;2022-12-24T05:55:08;3;2;
56688;PMS5003;42565;53.342;-1.534;2022-12-24T05:57:35;3;1;
56688;PMS5003;42565;53.342;-1.534;2022-12-24T06:00:02;2;1;
56688;PMS5003;42565;53.342;-1.534;2022-12-24T06:02:29;3;2;
56688;PMS5003;42565;53.342;-1.534;2022-12-24T06:04:57;3;3;
56688;PMS5003;42565;53.342;-1.534;2022-12-24T06:07:24;1;1;
56688;PMS5003;42565;53.342;-1.534;2022-12-24T06:09:52;2;2;
56688;PMS5003;42565;53.342;-1.534;2022-12-24T06:12:19;2;1;
56688;PMS5003;42565;53.342;-1.534;2022-12-24T06:14:48;2;1;
56688;PMS5003;42565;53.342;-1.534;2022-12-24T06:17:15;4;3;
56688;PMS5003;42565;53.342;-1.534;2022-12-24T06:19:42;1;1;
56688;PMS5003;42565;53.342;-1.534;2022-12-24T06:22:10;3;1;
56688;PMS5003;42565;53.342;-1.534;2022-12-24T06:24:37;2;1;
56688;PMS5003;42565;53.342;-1.534;2022-12-24T06:27:04;4;2;
56688;PMS5003;42565;53.342;-1.534;2022-12-24T06:29:31;2;2;
56688;PMS5003;42565;53.342;-1.534;2022-12-24T06:31:58;1;0;
56688;PMS5003;42565;53.342;-1.534;2022-12-24T06:34:26;1;1;
56688;PMS5003;42565;53.342;-1.534;2022-12-24T06:36:54;3;3;
56688;PMS5003;42565;53.342;-1.534;2022-12-24T06:39:21;2;0;
56688;PMS5003;42565;53.342;-1.534;2022-12-24T06:41:49;3;2;
56688;PMS5003;42565;53.342;-1.534;2022-12-24T06:44:16;2;0;
56688;PMS5003;42565;53.342;-1.534;2022-12-24T06:46:44;2;1;
56688;PMS5003;42565;53.342;-1.534;2022-12-24T06:49:11;0;0;
56688;PMS5003;42565;53.342;-1.534;2022-12-24T06:51:39;2;1;
56688;PMS5003;42565;53.342;-1.534;2022-12-24T06:54:06;2;1;
56688;PMS5003;42565;53.342;-1.534;2022-12-24T06:56:33;1;1;
56688;PMS5003;42565;53.342;-1.534;2022-12-24T06:59:01;2;1;
56688;PMS5003;42565;53.342;-1.534;2022-12-24T07:01:28;2;2;
56688;PMS5003;42565;53.342;-1.534;2022-12-24T07:03:55;3;1;
56688;PMS5003;42565;53.342;-1.534;2022-12-24T07:06:23;2;2;
56688;PMS5003;42565;53.342;-1.534;2022-12-24T07:08:51;2;1;
56688;PMS5003;42565;53.342;-1.534;2022-12-24T07:11:19;1;0;
56688;PMS5003;42565;53.342;-1.534;2022-12-24T07:13:48;2;2;
56688;PMS5003;42565;53.342;-1.534;2022-12-24T07:16:15;3;2;
56688;PMS5003;42565;53.342;-1.534;2022-12-24T07:18:43;1;1;
56688;PMS5003;42565;53.342;-1.534;2022-12-24T07:21:10;3;2;
56688;PMS5003;42565;53.342;-1.534;2022-12-24T07:23:38;1;1;
56688;PMS5003;42565;53.342;-1.534;2022-12-24T07:26:06;2;1;
56688;PMS5003;42565;53.342;-1.534;2022-12-24T07:28:33;2;1;
56688;PMS5003;42565;53.342;-1.534;2022-12-24T07:31:00;4;3;
56688;PMS5003;42565;53.342;-1.534;2022-12-24T07:33:28;3;1;
56688;PMS5003;42565;53.342;-1.534;2022-12-24T07:35:57;3;2;
56688;PMS5003;42565;53.342;-1.534;2022-12-24T07:38:39;1;1;
56688;PMS5003;42565;53.342;-1.534;2022-12-24T07:41:16;1;0;
56688;PMS5003;42565;53.342;-1.534;2022-12-24T07:43:54;3;3;
56688;PMS5003;42565;53.342;-1.534;2022-12-24T07:46:27;3;2;
56688;PMS5003;42565;53.342;-1.534;2022-12-24T07:49:10;2;1;
56688;PMS5003;42565;53.342;-1.534;2022-12-24T07:51:56;3;1;
56688;PMS5003;42565;53.342;-1.534;2022-12-24T07:54:39;4;3;
56688;PMS5003;42565;53.342;-1.534;2022-12-24T07:57:29;2;2;
56688;PMS5003;42565;53.342;-1.534;2022-12-24T07:59:57;3;2;
56688;PMS5003;42565;53.342;-1.534;2022-12-24T08:02:23;3;3;
56688;PMS5003;42565;53.342;-1.534;2022-12-24T08:04:50;2;2;
56688;PMS5003;42565;53.342;-1.534;2022-12-24T08:07:18;2;2;
56688;PMS5003;42565;53.342;-1.534;2022-12-24T08:09:45;5;4;
56688;PMS5003;42565;53.342;-1.534;2022-12-24T08:12:13;3;3;
56688;PMS5003;42565;53.342;-1.534;2022-12-24T08:14:40;6;5;
56688;PMS5003;42565;53.342;-1.534;2022-12-24T08:17:07;2;2;
56688;PMS5003;42565;53.342;-1.534;2022-12-24T08:19:34;5;4;
56688;PMS5003;42565;53.342;-1.534;2022-12-24T08:22:02;3;3;
56688;PMS5003;42565;53.342;-1.534;2022-12-24T08:24:29;3;2;
56688;PMS5003;42565;53.342;-1.534;2022-12-24T08:26:56;4;3;
56688;PMS5003;42565;53.342;-1.534;2022-12-24T08:29:24;6;4;
56688;PMS5003;42565;53.342;-1.534;2022-12-24T08:31:51;4;3;
56688;PMS5003;42565;53.342;-1.534;2022-12-24T08:34:18;4;3;
56688;PMS5003;42565;53.342;-1.534;2022-12-24T08:36:45;4;3;
56688;PMS5003;42565;53.342;-1.534;2022-12-24T08:39:12;4;4;
56688;PMS5003;42565;53.342;-1.534;2022-12-24T08:41:39;10;8;
56688;PMS5003;42565;53.342;-1.534;2022-12-24T08:44:07;6;6;
56688;PMS5003;42565;53.342;-1.534;2022-12-24T08:46:33;5;4;
56688;PMS5003;42565;53.342;-1.534;2022-12-24T08:49:01;4;3;
56688;PMS5003;42565;53.342;-1.534;2022-12-24T08:51:28;4;3;
56688;PMS5003;42565;53.342;-1.534;2022-12-24T08:53:56;5;4;
56688;PMS5003;42565;53.342;-1.534;2022-12-24T08:56:23;11;8;
56688;PMS5003;42565;53.342;-1.534;2022-12-24T08:58:49;5;5;
56688;PMS5003;42565;53.342;-1.534;2022-12-24T09:01:17;8;4;
56688;PMS5003;42565;53.342;-1.534;2022-12-24T09:03:45;4;3;
56688;PMS5003;42565;53.342;-1.534;2022-12-24T09:06:13;7;7;
56688;PMS5003;42565;53.342;-1.534;2022-12-24T09:08:41;14;14;
56688;PMS5003;42565;53.342;-1.534;2022-12-24T09:11:09;12;11;
56688;PMS5003;42565;53.342;-1.534;2022-12-24T09:13:38;10;8;
56688;PMS5003;42565;53.342;-1.534;2022-12-24T09:16:06;13;12;
56688;PMS5003;42565;53.342;-1.534;2022-12-24T09:18:33;14;9;
56688;PMS5003;42565;53.342;-1.534;2022-12-24T09:21:00;7;5;
56688;PMS5003;42565;53.342;-1.534;2022-12-24T09:23:29;3;3;
56688;PMS5003;42565;53.342;-1.534;2022-12-24T09:25:57;5;3;
56688;PMS5003;42565;53.342;-1.534;2022-12-24T09:28:24;8;6;
56688;PMS5003;42565;53.342;-1.534;2022-12-24T09:30:54;3;3;
56688;PMS5003;42565;53.342;-1.534;2022-12-24T09:33:22;8;6;
56688;PMS5003;42565;53.342;-1.534;2022-12-24T09:35:49;11;10;
56688;PMS5003;42565;53.342;-1.534;2022-12-24T09:38:17;6;6;
56688;PMS5003;42565;53.342;-1.534;2022-12-24T09:40:44;8;7;
56688;PMS5003;42565;53.342;-1.534;2022-12-24T09:43:13;5;4;
56688;PMS5003;42565;53.342;-1.534;2022-12-24T09:45:44;2;2;
56688;PMS5003;42565;53.342;-1.534;2022-12-24T09:48:18;5;3;
56688;PMS5003;42565;53.342;-1.534;2022-12-24T09:50:49;4;3;
56688;PMS5003;42565;53.342;-1.534;2022-12-24T09:53:22;5;5;
56688;PMS5003;42565;53.342;-1.534;2022-12-24T09:55:55;2;1;
56688;PMS5003;42565;53.342;-1.534;2022-12-24T09:58:26;5;3;
56688;PMS5003;42565;53.342;-1.534;2022-12-24T10:00:59;4;4;
56688;PMS5003;42565;53.342;-1.534;2022-12-24T10:03:26;3;2;
56688;PMS5003;42565;53.342;-1.534;2022-12-24T10:05:57;4;3;
56688;PMS5003;42565;53.342;-1.534;2022-12-24T10:08:34;6;5;
56688;PMS5003;42565;53.342;-1.534;2022-12-24T10:11:11;3;3;
56688;PMS5003;42565;53.342;-1.534;2022-12-24T10:13:49;5;5;
56688;PMS5003;42565;53.342;-1.534;2022-12-24T10:16:27;6;5;
56688;PMS5003;42565;53.342;-1.534;2022-12-24T10:19:09;4;4;
56688;PMS5003;42565;53.342;-1.534;2022-12-24T10:21:45;4;3;
56688;PMS5003;42565;53.342;-1.534;2022-12-24T10:24:27;5;4;
56688;PMS5003;42565;53.342;-1.534;2022-12-24T10:27:00;6;4;
56688;PMS5003;42565;53.342;-1.534;2022-12-24T10:29:33;4;4;
56688;PMS5003;42565;53.342;-1.534;2022-12-24T10:32:09;4;2;
56688;PMS5003;42565;53.342;-1.534;2022-12-24T10:34:48;7;4;
56688;PMS5003;42565;53.342;-1.534;2022-12-24T10:37:24;4;3;
56688;PMS5003;42565;53.342;-1.534;2022-12-24T10:39:53;3;2;
56688;PMS5003;42565;53.342;-1.534;2022-12-24T10:42:24;2;1;
56688;PMS5003;42565;53.342;-1.534;2022-12-24T10:45:03;2;1;
56688;PMS5003;42565;53.342;-1.534;2022-12-24T10:47:33;2;1;
56688;PMS5003;42565;53.342;-1.534;2022-12-24T10:50:08;4;2;
56688;PMS5003;42565;53.342;-1.534;2022-12-24T10:52:41;3;2;
56688;PMS5003;42565;53.342;-1.534;2022-12-24T10:55:11;2;2;
56688;PMS5003;42565;53.342;-1.534;2022-12-24T10:57:55;2;1;
56688;PMS5003;42565;53.342;-1.534;2022-12-24T11:00:27;4;2;
56688;PMS5003;42565;53.342;-1.534;2022-12-24T11:03:29;3;1;
56688;PMS5003;42565;53.342;-1.534;2022-12-24T11:06:00;3;2;
56688;PMS5003;42565;53.342;-1.534;2022-12-24T11:08:29;2;2;
56688;PMS5003;42565;53.342;-1.534;2022-12-24T11:10:58;3;3;
56688;PMS5003;42565;53.342;-1.534;2022-12-24T11:13:27;1;1;
56688;PMS5003;42565;53.342;-1.534;2022-12-24T11:16:01;4;2;
56688;PMS5003;42565;53.342;-1.534;2022-12-24T11:18:31;3;2;
56688;PMS5003;42565;53.342;-1.534;2022-12-24T11:21:01;2;2;
56688;PMS5003;42565;53.342;-1.534;2022-12-24T11:23:30;4;3;
56688;PMS5003;42565;53.342;-1.534;2022-12-24T11:25:58;3;2;
56688;PMS5003;42565;53.342;-1.534;2022-12-24T11:28:26;1;1;
56688;PMS5003;42565;53.342;-1.534;2022-12-24T11:30:57;1;1;
56688;PMS5003;42565;53.342;-1.534;2022-12-24T11:33:26;3;2;
56688;PMS5003;42565;53.342;-1.534;2022-12-24T11:35:56;2;2;
56688;PMS5003;42565;53.342;-1.534;2022-12-24T11:38:27;2;2;
56688;PMS5003;42565;53.342;-1.534;2022-12-24T11:41:01;3;2;
56688;PMS5003;42565;53.342;-1.534;2022-12-24T11:43:36;4;2;
56688;PMS5003;42565;53.342;-1.534;2022-12-24T11:46:10;2;1;
56688;PMS5003;42565;53.342;-1.534;2022-12-24T11:48:47;3;1;
56688;PMS5003;42565;53.342;-1.534;2022-12-24T11:51:29;2;1;
56688;PMS5003;42565;53.342;-1.534;2022-12-24T11:53:59;3;3;
56688;PMS5003;42565;53.342;-1.534;2022-12-24T11:56:34;7;5;
56688;PMS5003;42565;53.342;-1.534;2022-12-24T11:59:08;5;3;
56688;PMS5003;42565;53.342;-1.534;2022-12-24T12:01:43;9;5;
56688;PMS5003;42565;53.342;-1.534;2022-12-24T12:04:18;7;6;
56688;PMS5003;42565;53.342;-1.534;2022-12-24T12:06:47;6;4;
56688;PMS5003;42565;53.342;-1.534;2022-12-24T12:09:19;4;3;
56688;PMS5003;42565;53.342;-1.534;2022-12-24T12:11:51;7;6;
56688;PMS5003;42565;53.342;-1.534;2022-12-24T12:14:24;6;5;
56688;PMS5003;42565;53.342;-1.534;2022-12-24T12:16:57;5;5;
56688;PMS5003;42565;53.342;-1.534;2022-12-24T12:19:27;6;3;
56688;PMS5003;42565;53.342;-1.534;2022-12-24T12:21:58;3;3;
56688;PMS5003;42565;53.342;-1.534;2022-12-24T12:24:32;4;2;
56688;PMS5003;42565;53.342;-1.534;2022-12-24T12:27:04;5;3;
56688;PMS5003;42565;53.342;-1.534;2022-12-24T12:29:41;4;2;
56688;PMS5003;42565;53.342;-1.534;2022-12-24T12:32:15;4;3;
56688;PMS5003;42565;53.342;-1.534;2022-12-24T12:34:54;4;3;
56688;PMS5003;42565;53.342;-1.534;2022-12-24T12:37:28;2;2;
56688;PMS5003;42565;53.342;-1.534;2022-12-24T12:40:00;6;4;
56688;PMS5003;42565;53.342;-1.534;2022-12-24T12:42:28;6;2;
56688;PMS5003;42565;53.342;-1.534;2022-12-24T12:45:01;4;3;
56688;PMS5003;42565;53.342;-1.534;2022-12-24T12:47:46;5;4;
56688;PMS5003;42565;53.342;-1.534;2022-12-24T12:50:24;5;5;
56688;PMS5003;42565;53.342;-1.534;2022-12-24T12:53:01;5;4;
56688;PMS5003;42565;53.342;-1.534;2022-12-24T12:55:44;6;5;
56688;PMS5003;42565;53.342;-1.534;2022-12-24T12:58:17;7;6;
56688;PMS5003;42565;53.342;-1.534;2022-12-24T13:00:50;5;5;
56688;PMS5003;42565;53.342;-1.534;2022-12-24T13:03:38;9;8;
56688;PMS5003;42565;53.342;-1.534;2022-12-24T13:06:23;8;7;
56688;PMS5003;42565;53.342;-1.534;2022-12-24T13:09:18;10;7;
56688;PMS5003;42565;53.342;-1.534;2022-12-24T13:13:10;8;7;
56688;PMS5003;42565;53.342;-1.534;2022-12-24T13:16:06;13;11;
56688;PMS5003;42565;53.342;-1.534;2022-12-24T13:18:48;9;8;
56688;PMS5003;42565;53.342;-1.534;2022-12-24T13:21:24;12;9;
56688;PMS5003;42565;53.342;-1.534;2022-12-24T13:24:03;11;10;
56688;PMS5003;42565;53.342;-1.534;2022-12-24T13:26:32;13;9;
56688;PMS5003;42565;53.342;-1.534;2022-12-24T13:29:39;7;7;
56688;PMS5003;42565;53.342;-1.534;2022-12-24T13:33:21;11;9;
56688;PMS5003;42565;53.342;-1.534;2022-12-24T13:36:14;10;8;
56688;PMS5003;42565;53.342;-1.534;2022-12-24T13:38:45;10;8;
56688;PMS5003;42565;53.342;-1.534;2022-12-24T13:42:35;9;8;
56688;PMS5003;42565;53.342;-1.534;2022-12-24T13:45:46;9;8;
56688;PMS5003;42565;53.342;-1.534;2022-12-24T13:48:27;10;8;
56688;PMS5003;42565;53.342;-1.534;2022-12-24T13:50:59;8;7;
56688;PMS5003;42565;53.342;-1.534;2022-12-24T13:53:44;10;7;
56688;PMS5003;42565;53.342;-1.534;2022-12-24T13:56:19;11;8;
56688;PMS5003;42565;53.342;-1.534;2022-12-24T13:58:51;8;6;
56688;PMS5003;42565;53.342;-1.534;2022-12-24T14:01:34;8;7;
56688;PMS5003;42565;53.342;-1.534;2022-12-24T14:04:04;10;7;
56688;PMS5003;42565;53.342;-1.534;2022-12-24T14:06:34;8;8;
56688;PMS5003;42565;53.342;-1.534;2022-12-24T14:09:06;9;7;
56688;PMS5003;42565;53.342;-1.534;2022-12-24T14:12:13;8;6;
56688;PMS5003;42565;53.342;-1.534;2022-12-24T14:14:55;8;7;
56688;PMS5003;42565;53.342;-1.534;2022-12-24T14:17:23;8;5;
56688;PMS5003;42565;53.342;-1.534;2022-12-24T14:19:53;7;6;
56688;PMS5003;42565;53.342;-1.534;2022-12-24T14:22:24;8;7;
56688;PMS5003;42565;53.342;-1.534;2022-12-24T14:24:55;7;6;
56688;PMS5003;42565;53.342;-1.534;2022-12-24T14:27:27;9;6;
56688;PMS5003;42565;53.342;-1.534;2022-12-24T14:30:01;7;6;
56688;PMS5003;42565;53.342;-1.534;2022-12-24T14:32:33;6;6;
56688;PMS5003;42565;53.342;-1.534;2022-12-24T14:35:06;4;4;
56688;PMS5003;42565;53.342;-1.534;2022-12-24T14:37:35;7;5;
56688;PMS5003;42565;53.342;-1.534;2022-12-24T14:40:04;7;5;
56688;PMS5003;42565;53.342;-1.534;2022-12-24T14:42:35;6;5;
56688;PMS5003;42565;53.342;-1.534;2022-12-24T14:45:12;6;5;
56688;PMS5003;42565;53.342;-1.534;2022-12-24T14:47:51;6;5;
56688;PMS5003;42565;53.342;-1.534;2022-12-24T14:50:31;4;3;
56688;PMS5003;42565;53.342;-1.534;2022-12-24T14:53:06;8;6;
56688;PMS5003;42565;53.342;-1.534;2022-12-24T14:55:46;6;5;
56688;PMS5003;42565;53.342;-1.534;2022-12-24T14:59:27;7;6;
56688;PMS5003;42565;53.342;-1.534;2022-12-24T15:01:54;9;6;
56688;PMS5003;42565;53.342;-1.534;2022-12-24T15:04:22;4;4;
56688;PMS5003;42565;53.342;-1.534;2022-12-24T15:06:50;6;5;
56688;PMS5003;42565;53.342;-1.534;2022-12-24T15:09:21;5;4;
56688;PMS5003;42565;53.342;-1.534;2022-12-24T15:11:52;6;5;
56688;PMS5003;42565;53.342;-1.534;2022-12-24T15:14:23;9;6;
56688;PMS5003;42565;53.342;-1.534;2022-12-24T15:16:53;7;5;
56688;PMS5003;42565;53.342;-1.534;2022-12-24T15:19:23;6;5;
56688;PMS5003;42565;53.342;-1.534;2022-12-24T15:21:52;8;6;
56688;PMS5003;42565;53.342;-1.534;2022-12-24T15:24:25;8;6;
56688;PMS5003;42565;53.342;-1.534;2022-12-24T15:26:54;9;5;
56688;PMS5003;42565;53.342;-1.534;2022-12-24T15:29:22;8;6;
56688;PMS5003;42565;53.342;-1.534;2022-12-24T15:31:51;6;5;
56688;PMS5003;42565;53.342;-1.534;2022-12-24T15:34:24;6;4;
56688;PMS5003;42565;53.342;-1.534;2022-12-24T15:36:59;8;5;
56688;PMS5003;42565;53.342;-1.534;2022-12-24T15:39:28;5;3;
56688;PMS5003;42565;53.342;-1.534;2022-12-24T15:41:55;7;5;
56688;PMS5003;42565;53.342;-1.534;2022-12-24T15:44:23;7;5;
56688;PMS5003;42565;53.342;-1.534;2022-12-24T15:46:55;7;5;
56688;PMS5003;42565;53.342;-1.534;2022-12-24T15:49:23;4;4;
56688;PMS5003;42565;53.342;-1.534;2022-12-24T15:51:52;9;8;
56688;PMS5003;42565;53.342;-1.534;2022-12-24T15:54:19;7;7;
56688;PMS5003;42565;53.342;-1.534;2022-12-24T15:56:48;8;6;
56688;PMS5003;42565;53.342;-1.534;2022-12-24T15:59:49;6;6;
56688;PMS5003;42565;53.342;-1.534;2022-12-24T16:02:29;8;5;
56688;PMS5003;42565;53.342;-1.534;2022-12-24T16:05:33;11;9;
56688;PMS5003;42565;53.342;-1.534;2022-12-24T16:08:04;11;7;
56688;PMS5003;42565;53.342;-1.534;2022-12-24T16:10:52;6;6;
56688;PMS5003;42565;53.342;-1.534;2022-12-24T16:13:35;8;6;
56688;PMS5003;42565;53.342;-1.534;2022-12-24T16:16:07;10;10;
56688;PMS5003;42565;53.342;-1.534;2022-12-24T16:18:37;9;7;
56688;PMS5003;42565;53.342;-1.534;2022-12-24T16:21:07;13;8;
56688;PMS5003;42565;53.342;-1.534;2022-12-24T16:23:36;12;10;
56688;PMS5003;42565;53.342;-1.534;2022-12-24T16:26:05;9;8;
56688;PMS5003;42565;53.342;-1.534;2022-12-24T16:28:32;8;8;
56688;PMS5003;42565;53.342;-1.534;2022-12-24T16:30:59;14;7;
56688;PMS5003;42565;53.342;-1.534;2022-12-24T16:33:26;12;9;
56688;PMS5003;42565;53.342;-1.534;2022-12-24T16:35:54;8;6;
56688;PMS5003;42565;53.342;-1.534;2022-12-24T16:38:22;11;11;
56688;PMS5003;42565;53.342;-1.534;2022-12-24T16:40:50;11;9;
56688;PMS5003;42565;53.342;-1.534;2022-12-24T16:43:17;13;10;
56688;PMS5003;42565;53.342;-1.534;2022-12-24T16:45:44;13;12;
56688;PMS5003;42565;53.342;-1.534;2022-12-24T16:48:15;11;10;
56688;PMS5003;42565;53.342;-1.534;2022-12-24T16:50:45;10;9;
56688;PMS5003;42565;53.342;-1.534;2022-12-24T16:53:14;12;11;
56688;PMS5003;42565;53.342;-1.534;2022-12-24T16:55:42;10;9;
56688;PMS5003;42565;53.342;-1.534;2022-12-24T16:58:10;9;8;
56688;PMS5003;42565;53.342;-1.534;2022-12-24T17:00:37;10;9;
56688;PMS5003;42565;53.342;-1.534;2022-12-24T17:03:05;12;11;